sensor_id;sensor_type;location;lat;lon;timestamp;P1;durP1;ratioP1;P2;durP2;ratioP2
18407;SDS011;9330;52.210;21.174;2023-08-01T00:01:01;4.90;;;3.40;;
18407;SDS011;9330;52.210;21.174;2023-08-01T00:03:29;7.38;;;3.40;;
18407;SDS011;9330;52.210;21.174;2023-08-01T00:05:56;5.55;;;3.30;;
18407;SDS011;9330;52.210;21.174;2023-08-01T00:08:23;5.63;;;3.28;;
18407;SDS011;9330;52.210;21.174;2023-08-01T00:10:51;4.95;;;3.38;;
18407;SDS011;9330;52.210;21.174;2023-08-01T00:13:18;5.75;;;3.13;;
18407;SDS011;9330;52.210;21.174;2023-08-01T00:15:45;7.70;;;3.30;;
18407;SDS011;9330;52.210;21.174;2023-08-01T00:18:12;4.93;;;3.88;;
18407;SDS011;9330;52.210;21.174;2023-08-01T00:20:39;5.93;;;3.50;;
18407;SDS011;9330;52.210;21.174;2023-08-01T00:23:06;3.75;;;2.97;;
18407;SDS011;9330;52.210;21.174;2023-08-01T00:25:33;5.20;;;3.17;;
18407;SDS011;9330;52.210;21.174;2023-08-01T00:28:01;4.32;;;3.22;;
18407;SDS011;9330;52.210;21.174;2023-08-01T00:30:28;6.07;;;3.13;;
18407;SDS011;9330;52.210;21.174;2023-08-01T00:32:55;3.65;;;3.00;;
18407;SDS011;9330;52.210;21.174;2023-08-01T00:35:22;3.70;;;2.90;;
18407;SDS011;9330;52.210;21.174;2023-08-01T00:37:49;5.10;;;2.72;;
18407;SDS011;9330;52.210;21.174;2023-08-01T00:40:16;4.38;;;3.03;;
18407;SDS011;9330;52.210;21.174;2023-08-01T00:42:43;4.95;;;3.50;;
18407;SDS011;9330;52.210;21.174;2023-08-01T00:45:13;4.75;;;3.15;;
18407;SDS011;9330;52.210;21.174;2023-08-01T00:47:40;8.80;;;3.17;;
18407;SDS011;9330;52.210;21.174;2023-08-01T00:50:07;5.28;;;3.10;;
18407;SDS011;9330;52.210;21.174;2023-08-01T00:52:34;3.33;;;2.95;;
18407;SDS011;9330;52.210;21.174;2023-08-01T00:55:01;3.17;;;2.80;;
18407;SDS011;9330;52.210;21.174;2023-08-01T00:57:29;5.47;;;3.08;;
18407;SDS011;9330;52.210;21.174;2023-08-01T00:59:56;6.20;;;2.97;;
18407;SDS011;9330;52.210;21.174;2023-08-01T01:02:25;3.92;;;3.10;;
18407;SDS011;9330;52.210;21.174;2023-08-01T01:04:52;4.65;;;3.60;;
18407;SDS011;9330;52.210;21.174;2023-08-01T01:07:19;3.30;;;2.97;;
18407;SDS011;9330;52.210;21.174;2023-08-01T01:09:48;5.35;;;3.20;;
18407;SDS011;9330;52.210;21.174;2023-08-01T01:12:16;5.15;;;2.65;;
18407;SDS011;9330;52.210;21.174;2023-08-01T01:14:43;5.30;;;3.28;;
18407;SDS011;9330;52.210;21.174;2023-08-01T01:17:09;4.78;;;3.13;;
18407;SDS011;9330;52.210;21.174;2023-08-01T01:19:38;5.05;;;3.20;;
18407;SDS011;9330;52.210;21.174;2023-08-01T01:22:07;5.60;;;3.42;;
18407;SDS011;9330;52.210;21.174;2023-08-01T01:24:36;6.43;;;2.97;;
18407;SDS011;9330;52.210;21.174;2023-08-01T01:27:04;4.55;;;2.50;;
18407;SDS011;9330;52.210;21.174;2023-08-01T01:29:32;4.63;;;2.90;;
18407;SDS011;9330;52.210;21.174;2023-08-01T01:32:00;4.70;;;2.97;;
18407;SDS011;9330;52.210;21.174;2023-08-01T01:34:28;14.00;;;3.15;;
18407;SDS011;9330;52.210;21.174;2023-08-01T01:36:55;3.97;;;2.88;;
18407;SDS011;9330;52.210;21.174;2023-08-01T01:39:24;4.78;;;2.83;;
18407;SDS011;9330;52.210;21.174;2023-08-01T01:41:51;5.75;;;3.03;;
18407;SDS011;9330;52.210;21.174;2023-08-01T01:44:18;5.28;;;3.20;;
18407;SDS011;9330;52.210;21.174;2023-08-01T01:46:45;4.78;;;3.47;;
18407;SDS011;9330;52.210;21.174;2023-08-01T01:49:14;5.32;;;2.65;;
18407;SDS011;9330;52.210;21.174;2023-08-01T01:51:41;3.00;;;2.63;;
18407;SDS011;9330;52.210;21.174;2023-08-01T01:54:08;4.32;;;3.00;;
18407;SDS011;9330;52.210;21.174;2023-08-01T01:56:36;3.97;;;2.80;;
18407;SDS011;9330;52.210;21.174;2023-08-01T01:59:03;3.85;;;3.00;;
18407;SDS011;9330;52.210;21.174;2023-08-01T02:01:30;5.68;;;2.80;;
18407;SDS011;9330;52.210;21.174;2023-08-01T02:03:58;4.25;;;2.72;;
18407;SDS011;9330;52.210;21.174;2023-08-01T02:06:25;6.07;;;3.13;;
18407;SDS011;9330;52.210;21.174;2023-08-01T02:08:51;5.50;;;3.13;;
18407;SDS011;9330;52.210;21.174;2023-08-01T02:11:18;6.05;;;3.10;;
18407;SDS011;9330;52.210;21.174;2023-08-01T02:13:46;4.10;;;2.95;;
18407;SDS011;9330;52.210;21.174;2023-08-01T02:16:13;7.38;;;3.60;;
18407;SDS011;9330;52.210;21.174;2023-08-01T02:18:40;3.42;;;2.85;;
18407;SDS011;9330;52.210;21.174;2023-08-01T02:21:08;5.07;;;3.28;;
18407;SDS011;9330;52.210;21.174;2023-08-01T02:23:35;3.38;;;2.72;;
18407;SDS011;9330;52.210;21.174;2023-08-01T02:26:02;5.15;;;2.95;;
18407;SDS011;9330;52.210;21.174;2023-08-01T02:28:31;6.85;;;3.38;;
18407;SDS011;9330;52.210;21.174;2023-08-01T02:30:59;6.05;;;3.03;;
18407;SDS011;9330;52.210;21.174;2023-08-01T02:33:26;9.13;;;3.17;;
18407;SDS011;9330;52.210;21.174;2023-08-01T02:35:53;5.40;;;3.05;;
18407;SDS011;9330;52.210;21.174;2023-08-01T02:38:20;5.70;;;3.45;;
18407;SDS011;9330;52.210;21.174;2023-08-01T02:40:47;3.92;;;3.08;;
18407;SDS011;9330;52.210;21.174;2023-08-01T02:43:14;4.30;;;2.85;;
18407;SDS011;9330;52.210;21.174;2023-08-01T02:45:42;4.13;;;3.33;;
18407;SDS011;9330;52.210;21.174;2023-08-01T02:48:10;4.53;;;3.50;;
18407;SDS011;9330;52.210;21.174;2023-08-01T02:50:37;5.57;;;3.47;;
18407;SDS011;9330;52.210;21.174;2023-08-01T02:53:06;4.97;;;3.10;;
18407;SDS011;9330;52.210;21.174;2023-08-01T02:55:33;8.55;;;3.10;;
18407;SDS011;9330;52.210;21.174;2023-08-01T02:58:00;5.25;;;3.47;;
18407;SDS011;9330;52.210;21.174;2023-08-01T03:00:26;3.45;;;3.13;;
18407;SDS011;9330;52.210;21.174;2023-08-01T03:02:54;5.22;;;3.78;;
18407;SDS011;9330;52.210;21.174;2023-08-01T03:05:23;7.07;;;3.08;;
18407;SDS011;9330;52.210;21.174;2023-08-01T03:07:50;5.88;;;3.58;;
18407;SDS011;9330;52.210;21.174;2023-08-01T03:10:17;5.65;;;3.22;;
18407;SDS011;9330;52.210;21.174;2023-08-01T03:12:44;5.97;;;2.97;;
18407;SDS011;9330;52.210;21.174;2023-08-01T03:15:11;5.80;;;3.40;;
18407;SDS011;9330;52.210;21.174;2023-08-01T03:17:38;6.60;;;3.60;;
18407;SDS011;9330;52.210;21.174;2023-08-01T03:20:06;5.20;;;3.67;;
18407;SDS011;9330;52.210;21.174;2023-08-01T03:22:37;5.55;;;3.47;;
18407;SDS011;9330;52.210;21.174;2023-08-01T03:25:05;6.15;;;3.72;;
18407;SDS011;9330;52.210;21.174;2023-08-01T03:27:33;6.10;;;3.88;;
18407;SDS011;9330;52.210;21.174;2023-08-01T03:30:00;5.78;;;3.22;;
18407;SDS011;9330;52.210;21.174;2023-08-01T03:32:27;5.20;;;3.53;;
18407;SDS011;9330;52.210;21.174;2023-08-01T03:34:54;4.10;;;3.70;;
18407;SDS011;9330;52.210;21.174;2023-08-01T03:37:21;6.70;;;4.10;;
18407;SDS011;9330;52.210;21.174;2023-08-01T03:39:50;4.13;;;3.60;;
18407;SDS011;9330;52.210;21.174;2023-08-01T03:42:17;5.88;;;3.50;;
18407;SDS011;9330;52.210;21.174;2023-08-01T03:44:44;4.47;;;3.78;;
18407;SDS011;9330;52.210;21.174;2023-08-01T03:47:11;5.65;;;3.85;;
18407;SDS011;9330;52.210;21.174;2023-08-01T03:49:38;4.72;;;3.50;;
18407;SDS011;9330;52.210;21.174;2023-08-01T03:52:05;4.40;;;3.45;;
18407;SDS011;9330;52.210;21.174;2023-08-01T03:54:33;5.15;;;3.63;;
18407;SDS011;9330;52.210;21.174;2023-08-01T03:57:01;4.95;;;3.40;;
18407;SDS011;9330;52.210;21.174;2023-08-01T03:59:28;6.20;;;3.35;;
18407;SDS011;9330;52.210;21.174;2023-08-01T04:01:55;6.47;;;3.42;;
18407;SDS011;9330;52.210;21.174;2023-08-01T04:04:23;4.50;;;2.97;;
18407;SDS011;9330;52.210;21.174;2023-08-01T04:06:50;4.50;;;3.15;;
18407;SDS011;9330;52.210;21.174;2023-08-01T04:09:16;4.63;;;3.42;;
18407;SDS011;9330;52.210;21.174;2023-08-01T04:11:43;3.50;;;2.95;;
18407;SDS011;9330;52.210;21.174;2023-08-01T04:14:12;5.93;;;3.22;;
18407;SDS011;9330;52.210;21.174;2023-08-01T04:16:39;4.30;;;3.20;;
18407;SDS011;9330;52.210;21.174;2023-08-01T04:19:06;4.28;;;3.33;;
18407;SDS011;9330;52.210;21.174;2023-08-01T04:21:33;4.85;;;3.42;;
18407;SDS011;9330;52.210;21.174;2023-08-01T04:24:00;4.20;;;3.22;;
18407;SDS011;9330;52.210;21.174;2023-08-01T04:26:27;8.07;;;3.30;;
18407;SDS011;9330;52.210;21.174;2023-08-01T04:28:54;4.45;;;3.08;;
18407;SDS011;9330;52.210;21.174;2023-08-01T04:31:23;8.35;;;3.40;;
18407;SDS011;9330;52.210;21.174;2023-08-01T04:33:50;7.55;;;3.42;;
18407;SDS011;9330;52.210;21.174;2023-08-01T04:36:17;5.07;;;3.05;;
18407;SDS011;9330;52.210;21.174;2023-08-01T04:38:44;5.03;;;3.30;;
18407;SDS011;9330;52.210;21.174;2023-08-01T04:41:11;3.33;;;2.85;;
18407;SDS011;9330;52.210;21.174;2023-08-01T04:43:38;4.40;;;2.85;;
18407;SDS011;9330;52.210;21.174;2023-08-01T04:46:05;4.90;;;3.38;;
18407;SDS011;9330;52.210;21.174;2023-08-01T04:48:33;3.40;;;3.03;;
18407;SDS011;9330;52.210;21.174;2023-08-01T04:51:00;3.60;;;2.97;;
18407;SDS011;9330;52.210;21.174;2023-08-01T04:53:28;5.65;;;3.10;;
18407;SDS011;9330;52.210;21.174;2023-08-01T04:55:55;6.70;;;3.30;;
18407;SDS011;9330;52.210;21.174;2023-08-01T04:58:21;5.85;;;3.30;;
18407;SDS011;9330;52.210;21.174;2023-08-01T05:00:48;4.32;;;3.25;;
18407;SDS011;9330;52.210;21.174;2023-08-01T05:03:15;5.13;;;2.90;;
18407;SDS011;9330;52.210;21.174;2023-08-01T05:05:44;4.53;;;2.80;;
18407;SDS011;9330;52.210;21.174;2023-08-01T05:08:11;6.18;;;3.17;;
18407;SDS011;9330;52.210;21.174;2023-08-01T05:10:38;3.13;;;2.72;;
18407;SDS011;9330;52.210;21.174;2023-08-01T05:13:05;5.05;;;3.00;;
18407;SDS011;9330;52.210;21.174;2023-08-01T05:15:32;4.80;;;2.72;;
18407;SDS011;9330;52.210;21.174;2023-08-01T05:17:59;5.03;;;2.95;;
18407;SDS011;9330;52.210;21.174;2023-08-01T05:20:26;3.13;;;2.80;;
18407;SDS011;9330;52.210;21.174;2023-08-01T05:22:57;3.10;;;2.60;;
18407;SDS011;9330;52.210;21.174;2023-08-01T05:25:24;5.82;;;3.05;;
18407;SDS011;9330;52.210;21.174;2023-08-01T05:27:51;6.85;;;2.90;;
18407;SDS011;9330;52.210;21.174;2023-08-01T05:30:18;3.28;;;2.40;;
18407;SDS011;9330;52.210;21.174;2023-08-01T05:32:45;4.05;;;2.60;;
18407;SDS011;9330;52.210;21.174;2023-08-01T05:35:13;5.82;;;2.80;;
18407;SDS011;9330;52.210;21.174;2023-08-01T05:37:39;3.58;;;2.60;;
18407;SDS011;9330;52.210;21.174;2023-08-01T05:40:09;5.57;;;2.88;;
18407;SDS011;9330;52.210;21.174;2023-08-01T05:42:37;5.72;;;2.22;;
18407;SDS011;9330;52.210;21.174;2023-08-01T05:45:04;6.30;;;2.50;;
18407;SDS011;9330;52.210;21.174;2023-08-01T05:47:32;5.47;;;2.88;;
18407;SDS011;9330;52.210;21.174;2023-08-01T05:49:59;6.80;;;2.40;;
18407;SDS011;9330;52.210;21.174;2023-08-01T05:52:26;6.80;;;3.00;;
18407;SDS011;9330;52.210;21.174;2023-08-01T05:54:53;5.38;;;2.90;;
18407;SDS011;9330;52.210;21.174;2023-08-01T05:57:22;4.72;;;2.42;;
18407;SDS011;9330;52.210;21.174;2023-08-01T05:59:49;3.75;;;2.55;;
18407;SDS011;9330;52.210;21.174;2023-08-01T06:02:16;3.72;;;2.45;;
18407;SDS011;9330;52.210;21.174;2023-08-01T06:04:43;3.40;;;2.40;;
18407;SDS011;9330;52.210;21.174;2023-08-01T06:07:10;3.45;;;2.65;;
18407;SDS011;9330;52.210;21.174;2023-08-01T06:09:37;4.50;;;2.70;;
18407;SDS011;9330;52.210;21.174;2023-08-01T06:12:04;5.20;;;2.72;;
18407;SDS011;9330;52.210;21.174;2023-08-01T06:14:33;5.20;;;2.67;;
18407;SDS011;9330;52.210;21.174;2023-08-01T06:17:00;3.83;;;2.78;;
18407;SDS011;9330;52.210;21.174;2023-08-01T06:19:27;3.15;;;2.30;;
18407;SDS011;9330;52.210;21.174;2023-08-01T06:21:55;5.22;;;2.70;;
18407;SDS011;9330;52.210;21.174;2023-08-01T06:24:22;5.15;;;2.58;;
18407;SDS011;9330;52.210;21.174;2023-08-01T06:26:48;2.35;;;2.03;;
18407;SDS011;9330;52.210;21.174;2023-08-01T06:29:15;4.90;;;2.47;;
18407;SDS011;9330;52.210;21.174;2023-08-01T06:31:43;4.45;;;2.50;;
18407;SDS011;9330;52.210;21.174;2023-08-01T06:34:10;4.90;;;2.60;;
18407;SDS011;9330;52.210;21.174;2023-08-01T06:36:37;3.33;;;2.30;;
18407;SDS011;9330;52.210;21.174;2023-08-01T06:39:04;4.88;;;2.60;;
18407;SDS011;9330;52.210;21.174;2023-08-01T06:41:31;4.97;;;2.47;;
18407;SDS011;9330;52.210;21.174;2023-08-01T06:43:58;3.42;;;2.65;;
18407;SDS011;9330;52.210;21.174;2023-08-01T06:46:25;4.38;;;2.63;;
18407;SDS011;9330;52.210;21.174;2023-08-01T06:48:53;5.10;;;2.30;;
18407;SDS011;9330;52.210;21.174;2023-08-01T06:51:20;3.35;;;2.72;;
18407;SDS011;9330;52.210;21.174;2023-08-01T06:53:47;4.30;;;2.70;;
18407;SDS011;9330;52.210;21.174;2023-08-01T06:56:14;3.75;;;2.72;;
18407;SDS011;9330;52.210;21.174;2023-08-01T06:58:41;5.07;;;2.50;;
18407;SDS011;9330;52.210;21.174;2023-08-01T07:01:08;3.78;;;2.42;;
18407;SDS011;9330;52.210;21.174;2023-08-01T07:03:35;3.80;;;2.67;;
18407;SDS011;9330;52.210;21.174;2023-08-01T07:06:03;4.75;;;2.50;;
18407;SDS011;9330;52.210;21.174;2023-08-01T07:08:30;5.15;;;2.78;;
18407;SDS011;9330;52.210;21.174;2023-08-01T07:10:58;3.42;;;2.40;;
18407;SDS011;9330;52.210;21.174;2023-08-01T07:13:25;3.33;;;2.50;;
18407;SDS011;9330;52.210;21.174;2023-08-01T07:15:53;3.70;;;2.20;;
18407;SDS011;9330;52.210;21.174;2023-08-01T07:18:20;4.88;;;2.45;;
18407;SDS011;9330;52.210;21.174;2023-08-01T07:20:47;3.70;;;2.63;;
18407;SDS011;9330;52.210;21.174;2023-08-01T07:23:15;3.95;;;2.28;;
18407;SDS011;9330;52.210;21.174;2023-08-01T07:25:42;3.03;;;2.28;;
18407;SDS011;9330;52.210;21.174;2023-08-01T07:28:09;4.38;;;2.53;;
18407;SDS011;9330;52.210;21.174;2023-08-01T07:30:36;2.65;;;2.15;;
18407;SDS011;9330;52.210;21.174;2023-08-01T07:33:03;3.85;;;2.28;;
18407;SDS011;9330;52.210;21.174;2023-08-01T07:35:29;4.60;;;2.10;;
18407;SDS011;9330;52.210;21.174;2023-08-01T07:37:58;3.28;;;2.40;;
18407;SDS011;9330;52.210;21.174;2023-08-01T07:40:27;4.72;;;2.65;;
18407;SDS011;9330;52.210;21.174;2023-08-01T07:42:54;5.18;;;2.35;;
18407;SDS011;9330;52.210;21.174;2023-08-01T07:45:21;3.05;;;1.95;;
18407;SDS011;9330;52.210;21.174;2023-08-01T07:47:47;5.65;;;2.28;;
18407;SDS011;9330;52.210;21.174;2023-08-01T07:50:15;2.60;;;2.40;;
18407;SDS011;9330;52.210;21.174;2023-08-01T07:52:42;3.47;;;2.42;;
18407;SDS011;9330;52.210;21.174;2023-08-01T07:55:08;3.47;;;2.40;;
18407;SDS011;9330;52.210;21.174;2023-08-01T07:57:37;5.25;;;2.60;;
18407;SDS011;9330;52.210;21.174;2023-08-01T08:00:05;4.82;;;2.30;;
18407;SDS011;9330;52.210;21.174;2023-08-01T08:02:32;3.05;;;2.38;;
18407;SDS011;9330;52.210;21.174;2023-08-01T08:04:59;3.72;;;2.50;;
18407;SDS011;9330;52.210;21.174;2023-08-01T08:07:26;2.97;;;2.50;;
18407;SDS011;9330;52.210;21.174;2023-08-01T08:09:53;5.38;;;2.60;;
18407;SDS011;9330;52.210;21.174;2023-08-01T08:12:20;4.75;;;2.30;;
18407;SDS011;9330;52.210;21.174;2023-08-01T08:14:48;2.60;;;2.28;;
18407;SDS011;9330;52.210;21.174;2023-08-01T08:17:16;2.53;;;2.00;;
18407;SDS011;9330;52.210;21.174;2023-08-01T08:19:42;3.53;;;2.50;;
18407;SDS011;9330;52.210;21.174;2023-08-01T08:22:09;3.40;;;2.28;;
18407;SDS011;9330;52.210;21.174;2023-08-01T08:24:36;3.20;;;2.22;;
18407;SDS011;9330;52.210;21.174;2023-08-01T08:27:03;3.80;;;2.47;;
18407;SDS011;9330;52.210;21.174;2023-08-01T08:29:31;3.40;;;2.10;;
18407;SDS011;9330;52.210;21.174;2023-08-01T08:32:10;2.78;;;2.13;;
18407;SDS011;9330;52.210;21.174;2023-08-01T08:34:38;3.72;;;2.35;;
18407;SDS011;9330;52.210;21.174;2023-08-01T08:37:08;2.80;;;2.40;;
18407;SDS011;9330;52.210;21.174;2023-08-01T08:39:35;2.30;;;2.03;;
18407;SDS011;9330;52.210;21.174;2023-08-01T08:42:03;4.30;;;2.35;;
18407;SDS011;9330;52.210;21.174;2023-08-01T08:44:30;4.25;;;2.60;;
18407;SDS011;9330;52.210;21.174;2023-08-01T08:47:02;3.55;;;2.60;;
18407;SDS011;9330;52.210;21.174;2023-08-01T08:49:31;4.47;;;2.30;;
18407;SDS011;9330;52.210;21.174;2023-08-01T08:51:58;3.13;;;2.40;;
18407;SDS011;9330;52.210;21.174;2023-08-01T08:54:25;4.05;;;2.22;;
18407;SDS011;9330;52.210;21.174;2023-08-01T08:56:53;5.20;;;2.20;;
18407;SDS011;9330;52.210;21.174;2023-08-01T08:59:20;4.22;;;2.58;;
18407;SDS011;9330;52.210;21.174;2023-08-01T09:01:47;2.88;;;2.22;;
18407;SDS011;9330;52.210;21.174;2023-08-01T09:04:15;3.10;;;2.20;;
18407;SDS011;9330;52.210;21.174;2023-08-01T09:06:45;2.60;;;2.10;;
18407;SDS011;9330;52.210;21.174;2023-08-01T09:09:14;2.47;;;2.03;;
18407;SDS011;9330;52.210;21.174;2023-08-01T09:11:42;3.13;;;2.30;;
18407;SDS011;9330;52.210;21.174;2023-08-01T09:14:11;3.80;;;2.33;;
18407;SDS011;9330;52.210;21.174;2023-08-01T09:16:39;2.85;;;2.10;;
18407;SDS011;9330;52.210;21.174;2023-08-01T09:19:07;2.55;;;2.03;;
18407;SDS011;9330;52.210;21.174;2023-08-01T09:21:35;3.75;;;2.22;;
18407;SDS011;9330;52.210;21.174;2023-08-01T09:24:12;2.92;;;2.15;;
18407;SDS011;9330;52.210;21.174;2023-08-01T09:26:39;3.88;;;2.30;;
18407;SDS011;9330;52.210;21.174;2023-08-01T09:29:07;3.92;;;2.50;;
18407;SDS011;9330;52.210;21.174;2023-08-01T09:31:35;4.43;;;2.35;;
18407;SDS011;9330;52.210;21.174;2023-08-01T09:34:03;3.30;;;2.20;;
18407;SDS011;9330;52.210;21.174;2023-08-01T09:36:31;3.50;;;2.38;;
18407;SDS011;9330;52.210;21.174;2023-08-01T09:38:58;3.55;;;2.20;;
18407;SDS011;9330;52.210;21.174;2023-08-01T09:41:27;2.63;;;2.15;;
18407;SDS011;9330;52.210;21.174;2023-08-01T09:43:55;4.95;;;2.40;;
18407;SDS011;9330;52.210;21.174;2023-08-01T09:46:23;6.03;;;2.47;;
18407;SDS011;9330;52.210;21.174;2023-08-01T09:48:50;2.78;;;2.20;;
18407;SDS011;9330;52.210;21.174;2023-08-01T09:51:18;3.63;;;2.38;;
18407;SDS011;9330;52.210;21.174;2023-08-01T09:53:48;4.22;;;2.40;;
18407;SDS011;9330;52.210;21.174;2023-08-01T09:56:18;5.47;;;2.30;;
18407;SDS011;9330;52.210;21.174;2023-08-01T09:58:48;4.70;;;2.25;;
18407;SDS011;9330;52.210;21.174;2023-08-01T10:01:16;4.40;;;2.40;;
18407;SDS011;9330;52.210;21.174;2023-08-01T10:03:44;2.88;;;2.40;;
18407;SDS011;9330;52.210;21.174;2023-08-01T10:06:13;3.58;;;2.33;;
18407;SDS011;9330;52.210;21.174;2023-08-01T10:08:44;3.72;;;2.00;;
18407;SDS011;9330;52.210;21.174;2023-08-01T10:11:12;3.75;;;2.28;;
18407;SDS011;9330;52.210;21.174;2023-08-01T10:13:40;2.92;;;2.33;;
18407;SDS011;9330;52.210;21.174;2023-08-01T10:16:10;4.53;;;2.15;;
18407;SDS011;9330;52.210;21.174;2023-08-01T10:18:38;3.58;;;2.47;;
18407;SDS011;9330;52.210;21.174;2023-08-01T10:21:05;2.97;;;2.33;;
18407;SDS011;9330;52.210;21.174;2023-08-01T10:23:34;4.30;;;2.58;;
18407;SDS011;9330;52.210;21.174;2023-08-01T10:26:03;4.47;;;2.10;;
18407;SDS011;9330;52.210;21.174;2023-08-01T10:28:32;4.35;;;2.17;;
18407;SDS011;9330;52.210;21.174;2023-08-01T10:31:21;2.42;;;2.22;;
18407;SDS011;9330;52.210;21.174;2023-08-01T10:33:48;3.55;;;2.00;;
18407;SDS011;9330;52.210;21.174;2023-08-01T10:36:18;3.35;;;2.38;;
18407;SDS011;9330;52.210;21.174;2023-08-01T10:38:47;3.63;;;2.40;;
18407;SDS011;9330;52.210;21.174;2023-08-01T10:41:21;4.05;;;2.78;;
18407;SDS011;9330;52.210;21.174;2023-08-01T10:43:51;4.93;;;2.67;;
18407;SDS011;9330;52.210;21.174;2023-08-01T10:46:19;6.50;;;3.08;;
18407;SDS011;9330;52.210;21.174;2023-08-01T10:48:50;4.75;;;3.20;;
18407;SDS011;9330;52.210;21.174;2023-08-01T10:51:18;3.90;;;2.90;;
18407;SDS011;9330;52.210;21.174;2023-08-01T10:53:45;5.47;;;3.33;;
18407;SDS011;9330;52.210;21.174;2023-08-01T10:56:16;5.00;;;3.00;;
18407;SDS011;9330;52.210;21.174;2023-08-01T10:58:44;4.68;;;3.05;;
18407;SDS011;9330;52.210;21.174;2023-08-01T11:01:13;5.03;;;3.05;;
18407;SDS011;9330;52.210;21.174;2023-08-01T11:03:42;3.70;;;3.03;;
18407;SDS011;9330;52.210;21.174;2023-08-01T11:06:09;4.97;;;2.63;;
18407;SDS011;9330;52.210;21.174;2023-08-01T11:08:36;3.33;;;2.85;;
18407;SDS011;9330;52.210;21.174;2023-08-01T11:11:04;5.95;;;2.85;;
18407;SDS011;9330;52.210;21.174;2023-08-01T11:13:33;3.55;;;2.65;;
18407;SDS011;9330;52.210;21.174;2023-08-01T11:16:01;4.32;;;2.88;;
18407;SDS011;9330;52.210;21.174;2023-08-01T11:18:29;3.95;;;2.70;;
18407;SDS011;9330;52.210;21.174;2023-08-01T11:20:58;4.07;;;3.03;;
18407;SDS011;9330;52.210;21.174;2023-08-01T11:23:28;3.65;;;2.80;;
18407;SDS011;9330;52.210;21.174;2023-08-01T11:25:56;4.03;;;2.90;;
18407;SDS011;9330;52.210;21.174;2023-08-01T11:28:22;4.90;;;3.10;;
18407;SDS011;9330;52.210;21.174;2023-08-01T11:30:50;3.55;;;3.00;;
18407;SDS011;9330;52.210;21.174;2023-08-01T11:33:17;3.95;;;3.20;;
18407;SDS011;9330;52.210;21.174;2023-08-01T11:35:46;4.20;;;3.00;;
18407;SDS011;9330;52.210;21.174;2023-08-01T11:38:18;4.45;;;2.65;;
18407;SDS011;9330;52.210;21.174;2023-08-01T11:40:44;4.13;;;2.70;;
18407;SDS011;9330;52.210;21.174;2023-08-01T11:43:14;4.30;;;2.80;;
18407;SDS011;9330;52.210;21.174;2023-08-01T11:45:48;4.45;;;2.80;;
18407;SDS011;9330;52.210;21.174;2023-08-01T11:48:15;4.13;;;3.40;;
18407;SDS011;9330;52.210;21.174;2023-08-01T11:50:43;3.88;;;2.80;;
18407;SDS011;9330;52.210;21.174;2023-08-01T11:53:18;3.72;;;3.08;;
18407;SDS011;9330;52.210;21.174;2023-08-01T11:55:46;4.07;;;3.20;;
18407;SDS011;9330;52.210;21.174;2023-08-01T11:58:14;4.35;;;3.38;;
18407;SDS011;9330;52.210;21.174;2023-08-01T12:00:41;3.70;;;2.92;;
18407;SDS011;9330;52.210;21.174;2023-08-01T12:03:09;5.50;;;3.17;;
18407;SDS011;9330;52.210;21.174;2023-08-01T12:05:38;6.00;;;3.08;;
18407;SDS011;9330;52.210;21.174;2023-08-01T12:08:11;6.20;;;2.95;;
18407;SDS011;9330;52.210;21.174;2023-08-01T12:10:41;4.38;;;3.25;;
18407;SDS011;9330;52.210;21.174;2023-08-01T12:13:19;2.92;;;2.63;;
18407;SDS011;9330;52.210;21.174;2023-08-01T12:15:47;6.72;;;3.20;;
18407;SDS011;9330;52.210;21.174;2023-08-01T12:18:19;3.65;;;3.13;;
18407;SDS011;9330;52.210;21.174;2023-08-01T12:20:46;4.97;;;2.97;;
18407;SDS011;9330;52.210;21.174;2023-08-01T12:23:13;3.20;;;2.85;;
18407;SDS011;9330;52.210;21.174;2023-08-01T12:25:42;3.80;;;3.03;;
18407;SDS011;9330;52.210;21.174;2023-08-01T12:28:09;4.40;;;3.15;;
18407;SDS011;9330;52.210;21.174;2023-08-01T12:30:39;3.10;;;2.35;;
18407;SDS011;9330;52.210;21.174;2023-08-01T12:33:06;4.22;;;2.53;;
18407;SDS011;9330;52.210;21.174;2023-08-01T12:35:34;4.95;;;3.20;;
18407;SDS011;9330;52.210;21.174;2023-08-01T12:38:01;4.40;;;2.72;;
18407;SDS011;9330;52.210;21.174;2023-08-01T12:40:28;3.78;;;2.80;;
18407;SDS011;9330;52.210;21.174;2023-08-01T12:42:56;6.63;;;3.15;;
18407;SDS011;9330;52.210;21.174;2023-08-01T12:45:23;3.13;;;2.83;;
18407;SDS011;9330;52.210;21.174;2023-08-01T12:47:50;3.47;;;2.75;;
18407;SDS011;9330;52.210;21.174;2023-08-01T12:50:16;3.40;;;2.78;;
18407;SDS011;9330;52.210;21.174;2023-08-01T12:52:43;3.28;;;2.50;;
18407;SDS011;9330;52.210;21.174;2023-08-01T12:55:10;6.05;;;2.78;;
18407;SDS011;9330;52.210;21.174;2023-08-01T12:57:37;3.92;;;2.60;;
18407;SDS011;9330;52.210;21.174;2023-08-01T13:00:07;4.50;;;2.80;;
18407;SDS011;9330;52.210;21.174;2023-08-01T13:02:35;4.13;;;2.72;;
18407;SDS011;9330;52.210;21.174;2023-08-01T13:05:02;2.80;;;2.42;;
18407;SDS011;9330;52.210;21.174;2023-08-01T13:07:29;3.05;;;2.45;;
18407;SDS011;9330;52.210;21.174;2023-08-01T13:09:57;3.40;;;2.40;;
18407;SDS011;9330;52.210;21.174;2023-08-01T13:12:24;4.78;;;2.92;;
18407;SDS011;9330;52.210;21.174;2023-08-01T13:14:51;5.00;;;3.00;;
18407;SDS011;9330;52.210;21.174;2023-08-01T13:17:19;2.97;;;2.30;;
18407;SDS011;9330;52.210;21.174;2023-08-01T13:19:46;3.08;;;2.53;;
18407;SDS011;9330;52.210;21.174;2023-08-01T13:22:13;4.47;;;2.83;;
18407;SDS011;9330;52.210;21.174;2023-08-01T13:24:40;3.67;;;2.30;;
18407;SDS011;9330;52.210;21.174;2023-08-01T13:27:06;3.42;;;2.83;;
18407;SDS011;9330;52.210;21.174;2023-08-01T13:29:34;3.25;;;2.53;;
18407;SDS011;9330;52.210;21.174;2023-08-01T13:32:01;2.92;;;2.45;;
18407;SDS011;9330;52.210;21.174;2023-08-01T13:34:30;3.33;;;2.65;;
18407;SDS011;9330;52.210;21.174;2023-08-01T13:36:56;4.35;;;2.90;;
18407;SDS011;9330;52.210;21.174;2023-08-01T13:39:23;3.00;;;2.40;;
18407;SDS011;9330;52.210;21.174;2023-08-01T13:41:50;3.65;;;2.88;;
18407;SDS011;9330;52.210;21.174;2023-08-01T13:44:17;4.82;;;2.45;;
18407;SDS011;9330;52.210;21.174;2023-08-01T13:46:44;4.30;;;2.78;;
18407;SDS011;9330;52.210;21.174;2023-08-01T13:49:11;2.60;;;2.40;;
18407;SDS011;9330;52.210;21.174;2023-08-01T13:51:39;4.18;;;2.90;;
18407;SDS011;9330;52.210;21.174;2023-08-01T13:54:06;4.47;;;2.55;;
18407;SDS011;9330;52.210;21.174;2023-08-01T13:56:33;5.47;;;3.10;;
18407;SDS011;9330;52.210;21.174;2023-08-01T13:59:00;3.30;;;2.85;;
18407;SDS011;9330;52.210;21.174;2023-08-01T14:01:26;5.10;;;3.00;;
18407;SDS011;9330;52.210;21.174;2023-08-01T14:03:53;3.63;;;2.70;;
18407;SDS011;9330;52.210;21.174;2023-08-01T14:06:20;3.72;;;2.85;;
18407;SDS011;9330;52.210;21.174;2023-08-01T14:08:48;3.90;;;3.00;;
18407;SDS011;9330;52.210;21.174;2023-08-01T14:11:16;3.85;;;3.20;;
18407;SDS011;9330;52.210;21.174;2023-08-01T14:13:43;4.50;;;3.50;;
18407;SDS011;9330;52.210;21.174;2023-08-01T14:16:10;3.33;;;3.03;;
18407;SDS011;9330;52.210;21.174;2023-08-01T14:18:37;4.03;;;3.15;;
18407;SDS011;9330;52.210;21.174;2023-08-01T14:21:04;3.65;;;3.22;;
18407;SDS011;9330;52.210;21.174;2023-08-01T14:23:31;3.38;;;2.67;;
18407;SDS011;9330;52.210;21.174;2023-08-01T14:26:00;3.92;;;2.95;;
18407;SDS011;9330;52.210;21.174;2023-08-01T14:28:26;4.53;;;2.85;;
18407;SDS011;9330;52.210;21.174;2023-08-01T14:30:53;5.57;;;3.00;;
18407;SDS011;9330;52.210;21.174;2023-08-01T14:33:20;6.75;;;3.15;;
18407;SDS011;9330;52.210;21.174;2023-08-01T14:35:47;5.00;;;2.70;;
18407;SDS011;9330;52.210;21.174;2023-08-01T14:38:14;3.40;;;3.05;;
18407;SDS011;9330;52.210;21.174;2023-08-01T14:40:41;5.75;;;3.17;;
18407;SDS011;9330;52.210;21.174;2023-08-01T14:43:09;4.15;;;2.90;;
18407;SDS011;9330;52.210;21.174;2023-08-01T14:45:38;3.15;;;2.85;;
18407;SDS011;9330;52.210;21.174;2023-08-01T14:48:05;6.63;;;3.20;;
18407;SDS011;9330;52.210;21.174;2023-08-01T14:50:32;4.53;;;3.10;;